sensor_id;sensor_type;location;lat;lon;timestamp;pressure;altitude;pressure_sealevel;temperature;humidity
75617;BME280;64200;55.426;37.758;2024-03-06T00:01:12;100337.47;;;0.69;45.85
75617;BME280;64200;55.426;37.758;2024-03-06T00:06:12;100340.63;;;0.72;44.87
75617;BME280;64200;55.426;37.758;2024-03-06T00:11:13;100344.91;;;0.65;45.16
75617;BME280;64200;55.426;37.758;2024-03-06T00:16:14;100343.78;;;0.74;44.72
75617;BME280;64200;55.426;37.758;2024-03-06T00:21:14;100342.22;;;0.76;44.46
75617;BME280;64200;55.426;37.758;2024-03-06T00:26:15;100339.88;;;0.75;44.84
75617;BME280;64200;55.426;37.758;2024-03-06T00:31:16;100340.75;;;0.93;45.24
75617;BME280;64200;55.426;37.758;2024-03-06T00:36:16;100339.59;;;0.94;45.09
75617;BME280;64200;55.426;37.758;2024-03-06T00:41:17;100348.50;;;0.77;44.95
75617;BME280;64200;55.426;37.758;2024-03-06T00:46:18;100343.78;;;0.74;44.57
75617;BME280;64200;55.426;37.758;2024-03-06T00:51:18;100351.13;;;0.59;44.69
75617;BME280;64200;55.426;37.758;2024-03-06T00:56:19;100350.66;;;0.49;44.63
75617;BME280;64200;55.426;37.758;2024-03-06T01:01:19;100340.50;;;0.54;45.02
75617;BME280;64200;55.426;37.758;2024-03-06T01:06:20;100344.78;;;0.51;44.75
75617;BME280;64200;55.426;37.758;2024-03-06T01:11:21;100348.25;;;0.41;45.27
75617;BME280;64200;55.426;37.758;2024-03-06T01:16:21;100347.78;;;0.35;45.19
75617;BME280;64200;55.426;37.758;2024-03-06T01:21:22;100349.31;;;0.29;45.25
75617;BME280;64200;55.426;37.758;2024-03-06T01:26:23;100345.41;;;0.30;45.28
75617;BME280;64200;55.426;37.758;2024-03-06T01:31:23;100348.84;;;0.20;45.05
75617;BME280;64200;55.426;37.758;2024-03-06T01:36:24;100342.00;;;0.03;43.90
75617;BME280;64200;55.426;37.758;2024-03-06T01:41:24;100344.63;;;-0.12;44.44
75617;BME280;64200;55.426;37.758;2024-03-06T01:46:25;100343.22;;;-0.32;44.87
75617;BME280;64200;55.426;37.758;2024-03-06T01:51:25;100345.88;;;-0.40;44.30
75617;BME280;64200;55.426;37.758;2024-03-06T01:56:27;100346.50;;;-0.54;44.96
75617;BME280;64200;55.426;37.758;2024-03-06T02:01:28;100349.19;;;-0.57;44.29
75617;BME280;64200;55.426;37.758;2024-03-06T02:06:29;100354.19;;;-0.66;44.71
75617;BME280;64200;55.426;37.758;2024-03-06T02:11:30;100361.88;;;-0.76;44.63
75617;BME280;64200;55.426;37.758;2024-03-06T02:16:31;100354.75;;;-0.80;44.54
75617;BME280;64200;55.426;37.758;2024-03-06T02:21:31;100360.06;;;-0.95;45.11
75617;BME280;64200;55.426;37.758;2024-03-06T02:26:32;100367.38;;;-1.02;45.27
75617;BME280;64200;55.426;37.758;2024-03-06T02:31:32;100363.69;;;-1.14;44.94
75617;BME280;64200;55.426;37.758;2024-03-06T02:36:33;100353.41;;;-1.20;44.89
75617;BME280;64200;55.426;37.758;2024-03-06T02:41:36;100367.97;;;-1.16;45.17
75617;BME280;64200;55.426;37.758;2024-03-06T02:46:37;100367.09;;;-1.20;45.40
75617;BME280;64200;55.426;37.758;2024-03-06T02:51:37;100379.19;;;-1.21;45.03
75617;BME280;64200;55.426;37.758;2024-03-06T02:56:38;100372.84;;;-1.29;45.16
75617;BME280;64200;55.426;37.758;2024-03-06T03:01:38;100379.41;;;-1.34;45.14
75617;BME280;64200;55.426;37.758;2024-03-06T03:06:39;100380.88;;;-1.40;45.61
75617;BME280;64200;55.426;37.758;2024-03-06T03:11:41;100385.50;;;-1.44;45.71
75617;BME280;64200;55.426;37.758;2024-03-06T03:16:42;100393.78;;;-1.40;45.26
75617;BME280;64200;55.426;37.758;2024-03-06T03:21:44;100396.53;;;-1.40;45.37
75617;BME280;64200;55.426;37.758;2024-03-06T03:26:45;100388.84;;;-1.54;45.71
75617;BME280;64200;55.426;37.758;2024-03-06T03:31:46;100399.78;;;-1.54;45.96
75617;BME280;64200;55.426;37.758;2024-03-06T03:36:46;100400.13;;;-1.60;46.22
75617;BME280;64200;55.426;37.758;2024-03-06T03:41:48;100407.09;;;-1.62;45.79
75617;BME280;64200;55.426;37.758;2024-03-06T03:46:49;100405.47;;;-1.67;46.49
75617;BME280;64200;55.426;37.758;2024-03-06T03:51:49;100406.91;;;-1.73;46.29
75617;BME280;64200;55.426;37.758;2024-03-06T03:56:50;100405.28;;;-1.78;45.83
75617;BME280;64200;55.426;37.758;2024-03-06T04:01:50;100409.50;;;-1.80;46.19
75617;BME280;64200;55.426;37.758;2024-03-06T04:06:51;100411.09;;;-1.79;46.40
75617;BME280;64200;55.426;37.758;2024-03-06T04:11:51;100416.91;;;-1.81;45.91
75617;BME280;64200;55.426;37.758;2024-03-06T04:16:51;100408.59;;;-1.88;46.54
75617;BME280;64200;55.426;37.758;2024-03-06T04:21:52;100407.44;;;-1.87;46.29
75617;BME280;64200;55.426;37.758;2024-03-06T04:26:52;100412.25;;;-1.80;46.50
75617;BME280;64200;55.426;37.758;2024-03-06T04:31:53;100413.84;;;-1.79;46.96
75617;BME280;64200;55.426;37.758;2024-03-06T04:36:53;100410.75;;;-1.78;46.52
75617;BME280;64200;55.426;37.758;2024-03-06T04:41:54;100419.00;;;-1.74;46.54
75617;BME280;64200;55.426;37.758;2024-03-06T04:46:57;100424.84;;;-1.75;46.30
75617;BME280;64200;55.426;37.758;2024-03-06T04:51:57;100417.50;;;-1.71;46.61
75617;BME280;64200;55.426;37.758;2024-03-06T04:56:58;100417.50;;;-1.71;45.97
75617;BME280;64200;55.426;37.758;2024-03-06T05:01:59;100422.41;;;-1.57;45.37
75617;BME280;64200;55.426;37.758;2024-03-06T05:06:59;100414.66;;;-1.55;45.86
75617;BME280;64200;55.426;37.758;2024-03-06T05:12:00;100418.28;;;-1.48;45.36
75617;BME280;64200;55.426;37.758;2024-03-06T05:17:00;100412.44;;;-1.46;44.89
75617;BME280;64200;55.426;37.758;2024-03-06T05:22:01;100418.41;;;-1.40;44.83
75617;BME280;64200;55.426;37.758;2024-03-06T05:27:01;100412.78;;;-1.25;44.73
75617;BME280;64200;55.426;37.758;2024-03-06T05:32:02;100413.44;;;-1.08;44.19
75617;BME280;64200;55.426;37.758;2024-03-06T05:37:03;100409.28;;;-0.98;43.68
75617;BME280;64200;55.426;37.758;2024-03-06T05:42:05;100422.19;;;-0.99;43.32
75617;BME280;64200;55.426;37.758;2024-03-06T05:47:05;100429.47;;;-0.83;43.74
75617;BME280;64200;55.426;37.758;2024-03-06T05:52:07;100439.88;;;-0.66;43.29
75617;BME280;64200;55.426;37.758;2024-03-06T05:57:07;100427.31;;;-0.40;42.48
75617;BME280;64200;55.426;37.758;2024-03-06T06:02:08;100431.53;;;-0.16;41.10
75617;BME280;64200;55.426;37.758;2024-03-06T06:07:08;100429.34;;;0.34;40.87
75617;BME280;64200;55.426;37.758;2024-03-06T06:12:09;100419.13;;;0.76;40.55
75617;BME280;64200;55.426;37.758;2024-03-06T06:17:09;100435.44;;;1.07;39.79
75617;BME280;64200;55.426;37.758;2024-03-06T06:22:10;100434.47;;;1.36;39.06
75617;BME280;64200;55.426;37.758;2024-03-06T06:27:12;100442.47;;;1.67;38.13
75617;BME280;64200;55.426;37.758;2024-03-06T06:32:13;100432.00;;;2.01;37.72
75617;BME280;64200;55.426;37.758;2024-03-06T06:37:13;100439.91;;;2.17;37.03
75617;BME280;64200;55.426;37.758;2024-03-06T06:42:15;100446.28;;;2.57;36.67
75617;BME280;64200;55.426;37.758;2024-03-06T06:47:16;100446.31;;;2.97;35.80
75617;BME280;64200;55.426;37.758;2024-03-06T06:52:16;100443.84;;;3.60;34.25
75617;BME280;64200;55.426;37.758;2024-03-06T06:57:17;100460.63;;;4.09;34.26
75617;BME280;64200;55.426;37.758;2024-03-06T07:02:18;100453.13;;;4.73;33.42
75617;BME280;64200;55.426;37.758;2024-03-06T07:07:18;100449.66;;;4.62;33.21
75617;BME280;64200;55.426;37.758;2024-03-06T07:12:19;100458.03;;;4.51;32.05
75617;BME280;64200;55.426;37.758;2024-03-06T07:17:19;100458.78;;;4.55;32.79
75617;BME280;64200;55.426;37.758;2024-03-06T07:22:20;100461.38;;;4.80;31.80
75617;BME280;64200;55.426;37.758;2024-03-06T07:27:20;100465.72;;;5.26;32.37
75617;BME280;64200;55.426;37.758;2024-03-06T07:32:21;100466.50;;;5.69;31.73
75617;BME280;64200;55.426;37.758;2024-03-06T07:37:22;100462.25;;;6.57;30.21
75617;BME280;64200;55.426;37.758;2024-03-06T07:42:22;100468.81;;;7.17;29.55
75617;BME280;64200;55.426;37.758;2024-03-06T07:47:23;100465.38;;;7.10;28.16
75617;BME280;64200;55.426;37.758;2024-03-06T07:52:23;100471.22;;;6.92;28.71
75617;BME280;64200;55.426;37.758;2024-03-06T07:57:24;100477.75;;;7.05;28.43
75617;BME280;64200;55.426;37.758;2024-03-06T08:02:25;100484.53;;;7.71;27.67
75617;BME280;64200;55.426;37.758;2024-03-06T08:07:25;100487.69;;;8.30;26.67
75617;BME280;64200;55.426;37.758;2024-03-06T08:12:26;100483.56;;;8.38;26.57
75617;BME280;64200;55.426;37.758;2024-03-06T08:17:27;100479.00;;;8.28;26.25
75617;BME280;64200;55.426;37.758;2024-03-06T08:22:27;100474.84;;;8.00;26.41
75617;BME280;64200;55.426;37.758;2024-03-06T08:27:28;100467.59;;;7.42;25.74
75617;BME280;64200;55.426;37.758;2024-03-06T08:32:28;100482.47;;;6.81;25.96
75617;BME280;64200;55.426;37.758;2024-03-06T08:37:29;100475.00;;;7.01;26.15
75617;BME280;64200;55.426;37.758;2024-03-06T08:42:29;100478.19;;;6.76;25.97
75617;BME280;64200;55.426;37.758;2024-03-06T08:47:30;100482.13;;;6.52;26.35
75617;BME280;64200;55.426;37.758;2024-03-06T08:52:31;100485.59;;;6.28;26.58
75617;BME280;64200;55.426;37.758;2024-03-06T08:57:35;100476.50;;;5.97;26.84
75617;BME280;64200;55.426;37.758;2024-03-06T09:02:37;100474.88;;;5.61;25.81
75617;BME280;64200;55.426;37.758;2024-03-06T09:07:41;100474.53;;;5.56;27.29
75617;BME280;64200;55.426;37.758;2024-03-06T09:12:41;100475.50;;;5.76;26.86
75617;BME280;64200;55.426;37.758;2024-03-06T09:17:42;100463.13;;;5.50;27.10
75617;BME280;64200;55.426;37.758;2024-03-06T09:22:43;100461.97;;;5.48;26.92
75617;BME280;64200;55.426;37.758;2024-03-06T09:27:43;100462.97;;;5.65;27.29
75617;BME280;64200;55.426;37.758;2024-03-06T09:32:44;100469.16;;;5.79;27.54
75617;BME280;64200;55.426;37.758;2024-03-06T09:37:45;100468.91;;;6.32;27.44
75617;BME280;64200;55.426;37.758;2024-03-06T09:42:46;100455.53;;;6.81;26.77
75617;BME280;64200;55.426;37.758;2024-03-06T09:47:49;100457.31;;;6.68;26.40
75617;BME280;64200;55.426;37.758;2024-03-06T09:52:52;100469.34;;;6.85;26.42
75617;BME280;64200;55.426;37.758;2024-03-06T09:57:55;100449.56;;;6.56;26.83
75617;BME280;64200;55.426;37.758;2024-03-06T10:02:59;100462.34;;;6.77;26.70
75617;BME280;64200;55.426;37.758;2024-03-06T10:08:04;100449.53;;;7.54;26.20
75617;BME280;64200;55.426;37.758;2024-03-06T10:13:05;100463.41;;;8.87;26.45
75617;BME280;64200;55.426;37.758;2024-03-06T10:18:30;100441.16;;;9.79;23.65
75617;BME280;64200;55.426;37.758;2024-03-06T10:23:32;100440.78;;;9.18;24.29
75617;BME280;64200;55.426;37.758;2024-03-06T10:28:35;100437.41;;;8.94;24.46
75617;BME280;64200;55.426;37.758;2024-03-06T10:33:36;100436.66;;;9.69;25.04
75617;BME280;64200;55.426;37.758;2024-03-06T10:38:39;100436.34;;;10.86;24.24
75617;BME280;64200;55.426;37.758;2024-03-06T10:43:43;100437.41;;;11.49;22.59
75617;BME280;64200;55.426;37.758;2024-03-06T10:48:46;100434.91;;;11.29;22.10
75617;BME280;64200;55.426;37.758;2024-03-06T10:53:50;100437.28;;;11.18;22.22
75617;BME280;64200;55.426;37.758;2024-03-06T10:58:52;100436.50;;;11.17;22.51
75617;BME280;64200;55.426;37.758;2024-03-06T11:03:56;100427.88;;;12.04;21.96
75617;BME280;64200;55.426;37.758;2024-03-06T11:08:57;100425.16;;;13.31;21.22
75617;BME280;64200;55.426;37.758;2024-03-06T11:14:03;100425.13;;;14.82;20.68
75617;BME280;64200;55.426;37.758;2024-03-06T11:19:05;100418.75;;;18.89;17.39
75617;BME280;64200;55.426;37.758;2024-03-06T11:24:15;100431.47;;;17.77;16.32
75617;BME280;64200;55.426;37.758;2024-03-06T11:29:17;100417.88;;;16.22;16.63
75617;BME280;64200;55.426;37.758;2024-03-06T11:34:21;100412.34;;;14.81;17.57
75617;BME280;64200;55.426;37.758;2024-03-06T11:39:22;100414.91;;;15.96;17.49
75617;BME280;64200;55.426;37.758;2024-03-06T11:44:23;100410.13;;;18.66;16.76
75617;BME280;64200;55.426;37.758;2024-03-06T11:49:26;100404.03;;;18.04;15.02
75617;BME280;64200;55.426;37.758;2024-03-06T11:54:29;100401.97;;;17.52;14.71
75617;BME280;64200;55.426;37.758;2024-03-06T11:59:31;100398.19;;;17.14;15.50
75617;BME280;64200;55.426;37.758;2024-03-06T12:04:34;100389.06;;;17.71;14.05
75617;BME280;64200;55.426;37.758;2024-03-06T12:09:38;100382.75;;;17.82;14.87
75617;BME280;64200;55.426;37.758;2024-03-06T12:14:38;100388.75;;;20.08;13.32
75617;BME280;64200;55.426;37.758;2024-03-06T12:19:42;100379.22;;;18.94;13.36
75617;BME280;64200;55.426;37.758;2024-03-06T12:24:43;100370.81;;;18.68;14.21
75617;BME280;64200;55.426;37.758;2024-03-06T12:29:44;100376.47;;;17.67;13.91
75617;BME280;64200;55.426;37.758;2024-03-06T12:34:57;100365.50;;;17.22;14.17
75617;BME280;64200;55.426;37.758;2024-03-06T12:40:00;100355.16;;;16.22;14.30
75617;BME280;64200;55.426;37.758;2024-03-06T12:45:00;100357.41;;;15.58;14.82
75617;BME280;64200;55.426;37.758;2024-03-06T12:50:03;100349.28;;;14.24;15.58
75617;BME280;64200;55.426;37.758;2024-03-06T12:55:05;100343.50;;;13.85;15.43
75617;BME280;64200;55.426;37.758;2024-03-06T13:00:06;100334.22;;;13.60;15.32
75617;BME280;64200;55.426;37.758;2024-03-06T13:05:14;100339.31;;;12.51;16.40
75617;BME280;64200;55.426;37.758;2024-03-06T13:10:14;100338.44;;;12.81;17.07
75617;BME280;64200;55.426;37.758;2024-03-06T13:15:15;100336.56;;;13.71;16.38
75617;BME280;64200;55.426;37.758;2024-03-06T13:20:15;100332.59;;;12.39;16.67
75617;BME280;64200;55.426;37.758;2024-03-06T13:25:16;100327.41;;;11.34;17.08
75617;BME280;64200;55.426;37.758;2024-03-06T13:30:17;100315.31;;;10.32;18.35
75617;BME280;64200;55.426;37.758;2024-03-06T13:35:17;100321.19;;;9.57;18.99
75617;BME280;64200;55.426;37.758;2024-03-06T13:40:18;100324.94;;;9.37;19.39
75617;BME280;64200;55.426;37.758;2024-03-06T13:45:18;100318.78;;;9.00;19.59
75617;BME280;64200;55.426;37.758;2024-03-06T13:50:19;100309.53;;;8.74;19.94
75617;BME280;64200;55.426;37.758;2024-03-06T13:55:20;100312.25;;;8.44;19.79
75617;BME280;64200;55.426;37.758;2024-03-06T14:00:20;100301.34;;;8.01;20.02
75617;BME280;64200;55.426;37.758;2024-03-06T14:05:22;100296.44;;;7.72;20.46
75617;BME280;64200;55.426;37.758;2024-03-06T14:10:25;100302.53;;;7.47;20.42
75617;BME280;64200;55.426;37.758;2024-03-06T14:15:26;100290.00;;;6.98;20.62
75617;BME280;64200;55.426;37.758;2024-03-06T14:20:27;100300.50;;;6.67;21.03
75617;BME280;64200;55.426;37.758;2024-03-06T14:25:28;100290.75;;;6.59;21.26
75617;BME280;64200;55.426;37.758;2024-03-06T14:30:29;100292.53;;;6.45;21.46
75617;BME280;64200;55.426;37.758;2024-03-06T14:35:30;100293.94;;;6.33;21.87
75617;BME280;64200;55.426;37.758;2024-03-06T14:40:30;100293.69;;;6.24;21.94
75617;BME280;64200;55.426;37.758;2024-03-06T14:45:31;100304.63;;;6.08;21.78
75617;BME280;64200;55.426;37.758;2024-03-06T14:50:32;100292.97;;;5.93;21.78
75617;BME280;64200;55.426;37.758;2024-03-06T14:55:32;100295.91;;;5.78;21.83
75617;BME280;64200;55.426;37.758;2024-03-06T15:00:33;100291.75;;;5.67;21.98
75617;BME280;64200;55.426;37.758;2024-03-06T15:05:34;100291.22;;;5.48;22.39
75617;BME280;64200;55.426;37.758;2024-03-06T15:10:35;100281.09;;;5.34;22.40
75617;BME280;64200;55.426;37.758;2024-03-06T15:15:35;100284.78;;;5.24;22.48
75617;BME280;64200;55.426;37.758;2024-03-06T15:20:36;100281.28;;;5.20;22.96
75617;BME280;64200;55.426;37.758;2024-03-06T15:25:37;100281.44;;;5.05;22.97
75617;BME280;64200;55.426;37.758;2024-03-06T15:30:38;100272.56;;;4.87;23.06
75617;BME280;64200;55.426;37.758;2024-03-06T15:35:38;100272.25;;;4.78;23.59
75617;BME280;64200;55.426;37.758;2024-03-06T15:40:39;100272.31;;;4.74;24.05
75617;BME280;64200;55.426;37.758;2024-03-06T15:45:39;100278.72;;;4.64;24.11
75617;BME280;64200;55.426;37.758;2024-03-06T15:50:41;100276.09;;;4.49;24.09
75617;BME280;64200;55.426;37.758;2024-03-06T15:55:42;100285.19;;;4.46;24.89
75617;BME280;64200;55.426;37.758;2024-03-06T16:00:42;100275.00;;;4.39;24.49
75617;BME280;64200;55.426;37.758;2024-03-06T16:05:43;100294.38;;;4.36;25.18
75617;BME280;64200;55.426;37.758;2024-03-06T16:10:43;100289.00;;;4.18;25.70
75617;BME280;64200;55.426;37.758;2024-03-06T16:15:45;100291.47;;;4.01;25.57
75617;BME280;64200;55.426;37.758;2024-03-06T16:20:46;100293.19;;;3.77;25.81
75617;BME280;64200;55.426;37.758;2024-03-06T16:25:46;100290.09;;;3.72;25.68
75617;BME280;64200;55.426;37.758;2024-03-06T16:30:47;100289.38;;;3.60;26.13
75617;BME280;64200;55.426;37.758;2024-03-06T16:35:47;100289.44;;;3.49;26.08
75617;BME280;64200;55.426;37.758;2024-03-06T16:40:48;100288.22;;;3.50;26.01
75617;BME280;64200;55.426;37.758;2024-03-06T16:45:48;100279.25;;;3.28;26.84
75617;BME280;64200;55.426;37.758;2024-03-06T16:50:49;100286.75;;;3.28;26.29
75617;BME280;64200;55.426;37.758;2024-03-06T16:55:50;100288.34;;;3.18;26.79
75617;BME280;64200;55.426;37.758;2024-03-06T17:00:50;100276.59;;;3.14;26.35
75617;BME280;64200;55.426;37.758;2024-03-06T17:05:51;100280.16;;;3.04;27.07
75617;BME280;64200;55.426;37.758;2024-03-06T17:10:51;100275.81;;;3.03;27.84
75617;BME280;64200;55.426;37.758;2024-03-06T17:15:51;100277.03;;;2.91;27.53
75617;BME280;64200;55.426;37.758;2024-03-06T17:20:53;100267.25;;;2.72;27.65
75617;BME280;64200;55.426;37.758;2024-03-06T17:25:54;100273.97;;;2.53;28.65
75617;BME280;64200;55.426;37.758;2024-03-06T17:30:55;100273.59;;;2.51;27.60
75617;BME280;64200;55.426;37.758;2024-03-06T17:35:56;100275.16;;;2.55;28.00
75617;BME280;64200;55.426;37.758;2024-03-06T17:40:57;100281.06;;;2.54;29.07
75617;BME280;64200;55.426;37.758;2024-03-06T17:45:58;100284.22;;;2.41;29.55
75617;BME280;64200;55.426;37.758;2024-03-06T17:50:58;100274.41;;;2.22;29.58
75617;BME280;64200;55.426;37.758;2024-03-06T17:55:59;100281.84;;;2.15;29.70
75617;BME280;64200;55.426;37.758;2024-03-06T18:00:59;100280.69;;;2.12;30.18
75617;BME280;64200;55.426;37.758;2024-03-06T18:06:00;100277.91;;;2.08;29.73
75617;BME280;64200;55.426;37.758;2024-03-06T18:11:00;100279.47;;;1.91;29.97
75617;BME280;64200;55.426;37.758;2024-03-06T18:16:01;100282.22;;;1.73;30.02
75617;BME280;64200;55.426;37.758;2024-03-06T18:21:02;100283.38;;;1.69;30.71
75617;BME280;64200;55.426;37.758;2024-03-06T18:26:03;100274.31;;;1.68;30.11
75617;BME280;64200;55.426;37.758;2024-03-06T18:31:03;100264.91;;;1.80;30.12
75617;BME280;64200;55.426;37.758;2024-03-06T18:36:04;100261.38;;;1.80;29.67
75617;BME280;64200;55.426;37.758;2024-03-06T18:41:05;100267.25;;;1.67;30.58
75617;BME280;64200;55.426;37.758;2024-03-06T18:46:05;100257.41;;;1.55;30.88
75617;BME280;64200;55.426;37.758;2024-03-06T18:51:06;100265.25;;;1.53;31.57
75617;BME280;64200;55.426;37.758;2024-03-06T18:56:06;100269.19;;;1.45;31.36
75617;BME280;64200;55.426;37.758;2024-03-06T19:01:07;100262.09;;;1.48;31.16
75617;BME280;64200;55.426;37.758;2024-03-06T19:06:10;100262.53;;;1.71;31.39
75617;BME280;64200;55.426;37.758;2024-03-06T19:11:13;100268.44;;;1.77;30.77
75617;BME280;64200;55.426;37.758;2024-03-06T19:16:14;100257.84;;;1.72;31.23
75617;BME280;64200;55.426;37.758;2024-03-06T19:21:15;100257.41;;;1.59;31.12
75617;BME280;64200;55.426;37.758;2024-03-06T19:26:16;100261.72;;;1.53;31.54
75617;BME280;64200;55.426;37.758;2024-03-06T19:31:16;100264.88;;;1.55;31.28
75617;BME280;64200;55.426;37.758;2024-03-06T19:36:19;100262.91;;;1.48;31.86
75617;BME280;64200;55.426;37.758;2024-03-06T19:41:19;100251.09;;;1.48;31.46
75617;BME280;64200;55.426;37.758;2024-03-06T19:46:20;100253.44;;;1.38;32.92
75617;BME280;64200;55.426;37.758;2024-03-06T19:51:21;100256.09;;;1.17;32.72
75617;BME280;64200;55.426;37.758;2024-03-06T19:56:22;100258.41;;;1.00;32.37
75617;BME280;64200;55.426;37.758;2024-03-06T20:01:24;100261.88;;;0.90;32.41
75617;BME280;64200;55.426;37.758;2024-03-06T20:06:25;100256.28;;;0.72;32.71
75617;BME280;64200;55.426;37.758;2024-03-06T20:11:27;100249.63;;;0.73;33.42
75617;BME280;64200;55.426;37.758;2024-03-06T20:16:28;100258.94;;;0.58;32.77
75617;BME280;64200;55.426;37.758;2024-03-06T20:21:28;100260.19;;;0.71;32.87
75617;BME280;64200;55.426;37.758;2024-03-06T20:26:30;100251.59;;;0.73;32.16
75617;BME280;64200;55.426;37.758;2024-03-06T20:31:31;100248.09;;;0.76;32.46
75617;BME280;64200;55.426;37.758;2024-03-06T20:36:32;100246.03;;;0.62;32.62
75617;BME280;64200;55.426;37.758;2024-03-06T20:41:33;100251.53;;;0.62;32.05
75617;BME280;64200;55.426;37.758;2024-03-06T20:46:34;100245.59;;;0.52;32.09
75617;BME280;64200;55.426;37.758;2024-03-06T20:51:35;100246.41;;;0.57;32.02
75617;BME280;64200;55.426;37.758;2024-03-06T20:56:35;100239.00;;;0.64;31.82
75617;BME280;64200;55.426;37.758;2024-03-06T21:01:36;100242.91;;;0.60;31.66
75617;BME280;64200;55.426;37.758;2024-03-06T21:06:37;100247.13;;;0.46;31.70
75617;BME280;64200;55.426;37.758;2024-03-06T21:11:38;100236.91;;;0.43;31.34
75617;BME280;64200;55.426;37.758;2024-03-06T21:16:39;100234.91;;;0.37;31.79
75617;BME280;64200;55.426;37.758;2024-03-06T21:21:43;100239.56;;;0.29;31.42
75617;BME280;64200;55.426;37.758;2024-03-06T21:26:48;100213.22;;;0.17;31.35
75617;BME280;64200;55.426;37.758;2024-03-06T21:31:51;100239.75;;;0.06;31.45
75617;BME280;64200;55.426;37.758;2024-03-06T21:36:51;100231.91;;;0.01;31.76
75617;BME280;64200;55.426;37.758;2024-03-06T21:41:52;100223.59;;;-0.07;31.53
75617;BME280;64200;55.426;37.758;2024-03-06T21:46:52;100224.38;;;-0.06;32.11
75617;BME280;64200;55.426;37.758;2024-03-06T21:51:53;100214.66;;;0.00;31.43
75617;BME280;64200;55.426;37.758;2024-03-06T21:56:54;100226.44;;;0.04;31.63
75617;BME280;64200;55.426;37.758;2024-03-06T22:01:54;100222.09;;;-0.01;31.21
75617;BME280;64200;55.426;37.758;2024-03-06T22:06:55;100225.19;;;-0.06;30.95
75617;BME280;64200;55.426;37.758;2024-03-06T22:11:55;100225.47;;;-0.18;31.46
75617;BME280;64200;55.426;37.758;2024-03-06T22:16:56;100214.66;;;-0.45;31.45
75617;BME280;64200;55.426;37.758;2024-03-06T22:21:57;100217.56;;;-0.68;31.90
75617;BME280;64200;55.426;37.758;2024-03-06T22:26:58;100220.09;;;-0.86;32.68
75617;BME280;64200;55.426;37.758;2024-03-06T22:31:59;100217.53;;;-1.06;32.37
75617;BME280;64200;55.426;37.758;2024-03-06T22:36:59;100224.66;;;-1.28;32.61
75617;BME280;64200;55.426;37.758;2024-03-06T22:42:01;100224.16;;;-1.67;33.89
75617;BME280;64200;55.426;37.758;2024-03-06T22:47:01;100224.44;;;-1.72;33.79
75617;BME280;64200;55.426;37.758;2024-03-06T22:52:02;100226.28;;;-1.80;33.75
75617;BME280;64200;55.426;37.758;2024-03-06T22:57:03;100214.25;;;-1.75;33.80
75617;BME280;64200;55.426;37.758;2024-03-06T23:02:04;100220.38;;;-1.82;33.96
75617;BME280;64200;55.426;37.758;2024-03-06T23:07:06;100215.59;;;-1.89;34.79
75617;BME280;64200;55.426;37.758;2024-03-06T23:12:06;100214.53;;;-1.81;34.02
75617;BME280;64200;55.426;37.758;2024-03-06T23:17:07;100214.38;;;-1.91;34.36
75617;BME280;64200;55.426;37.758;2024-03-06T23:22:07;100214.84;;;-1.89;34.57
75617;BME280;64200;55.426;37.758;2024-03-06T23:27:08;100201.66;;;-2.07;34.72
75617;BME280;64200;55.426;37.758;2024-03-06T23:32:08;100207.44;;;-2.12;34.93
75617;BME280;64200;55.426;37.758;2024-03-06T23:37:09;100197.56;;;-1.93;34.53
75617;BME280;64200;55.426;37.758;2024-03-06T23:42:10;100193.16;;;-1.75;34.42
75617;BME280;64200;55.426;37.758;2024-03-06T23:47:10;100194.78;;;-1.97;33.91
75617;BME280;64200;55.426;37.758;2024-03-06T23:52:12;100188.31;;;-1.85;34.38
75617;BME280;64200;55.426;37.758;2024-03-06T23:57:16;100187.91;;;-1.87;34.20
